Ranger Creek, WA

11:12 PM PDT die 26o May, anno 2017 (GMT -0700)
Stampede Pass | | Change Station

Elev 3967 ft 47.28 °N, 121.33 °W | Updated 16 minutes ago

Serena
Serena
54 °F
Feels Like 54 °F
N
5
Ventus Variabilis Ventus from Inter Austrum et Zephyrum

Hodie
High -- | Low -- °F
--% Chance of Precip.
Yesterday
High -- | Low -- °F
Precip. -- in
Pressio 30.06 in
Visibilitas 10.0 milia passuum
Clouds Serena
Frigus in quo Ros apparet 38 °F
Umor 55%
Rainfall 0.00 in
Snow Depth Not available.
5:19 AM 8:48 PM
Waxing Crescent, 3% visible
METAR KSMP 270556Z AUTO 22004KT 10SM CLR 12/03 A3011 RMK AO2 SLP177 T01220033 10183 20117 51010
Pressio 30.06 in
Visibilitas 10.0 milia passuum
Clouds Serena
Frigus in quo Ros apparet 38 °F
Umor 55%
Rainfall 0.00 in
Snow Depth Not available.
5:19 AM 8:48 PM
Waxing Crescent, 3% visible
METAR KSMP 270556Z AUTO 22004KT 10SM CLR 12/03 A3011 RMK AO2 SLP177 T01220033 10183 20117 51010

Get Severe Weather Alerts

Thanks for signing up!

Be on the lookout for a verification email in your inbox.

You'll start receiving the daily forecast at 6 AM.

×

10-Day Weather Forecast

Almanac

Astronomy

May. 26, 2017 Rise Set
Actual Time
Civil Twilight
Nautical Twilight
Astronomical Twilight
Moon
Length Of Visible Light
Length of Day
Tomorrow will be .
, % of the Moon is Illuminated

Today's Extremes

State Highs State Lows

Community

WunderPhotos

Category 6

Welcome to Category 6. This is the collective home for Weather Underground's featured writeups by Dr. Jeff Masters (right), Bob Henson (left), Chris Burt, and other regular contributors.

Nearby

Air Quality

  Air Quality AQ Index Pollutant
Not available.

Snow Depth

Station Depth Elevation

Earthquake Activity

City Distance Mag. Time & Date
Minimum magnitude displayed is 2.5.

Coastal Water Temperatures

Locus Calor

Stations

Nearby Weather Stations

Station Location Temp Frigus Venti Frigus in quo Ros apparet Umor Ventus Precip. Elev Renovata Type
                   

Watches & Warnings

There are currently no watches in effect.